createdAt,value
2019-04-25T00:02:28.671Z,10.04
2019-04-25T00:04:58.194Z,9.98
2019-04-25T00:07:27.807Z,9.99
2019-04-25T00:09:57.103Z,10.00
2019-04-25T00:12:26.473Z,9.97
2019-04-25T00:14:55.887Z,9.93
2019-04-25T00:17:25.857Z,9.88
2019-04-25T00:19:55.125Z,9.88
2019-04-25T00:22:31.684Z,9.87
2019-04-25T00:25:18.138Z,9.88
2019-04-25T00:27:48.506Z,9.87
2019-04-25T00:30:19.338Z,9.87
2019-04-25T00:32:49.294Z,9.88
2019-04-25T00:35:18.832Z,9.82
2019-04-25T00:37:48.080Z,9.82
2019-04-25T00:40:17.327Z,9.81
2019-04-25T00:42:46.688Z,9.73
2019-04-25T00:45:16.482Z,9.68
2019-04-25T00:47:45.748Z,9.70
2019-04-25T00:50:15.012Z,9.71
2019-04-25T00:52:44.855Z,9.71
2019-04-25T00:55:25.920Z,9.68
2019-04-25T00:57:46.877Z,9.65
2019-04-25T01:00:37.522Z,9.62
2019-04-25T01:03:08.278Z,9.56
2019-04-25T01:05:37.509Z,9.52
2019-04-25T01:08:06.742Z,9.51
2019-04-25T01:10:36.027Z,9.50
2019-04-25T01:13:05.456Z,9.44
2019-04-25T01:15:34.876Z,9.44
2019-04-25T01:18:04.663Z,9.41
2019-04-25T01:20:34.469Z,9.38
2019-04-25T01:23:03.856Z,9.40
2019-04-25T01:25:40.428Z,9.42
2019-04-25T01:28:04.211Z,9.45
2019-04-25T01:30:34.085Z,9.43
2019-04-25T01:33:04.179Z,9.43
2019-04-25T01:35:48.901Z,9.44
2019-04-25T01:38:33.511Z,9.42
2019-04-25T01:41:21.998Z,9.40
2019-04-25T01:44:14.338Z,9.36
2019-04-25T01:46:45.612Z,9.34
2019-04-25T01:49:15.007Z,9.30
2019-04-25T01:51:44.391Z,9.29
2019-04-25T01:54:14.132Z,9.30
2019-04-25T01:56:44.314Z,9.32
2019-04-25T01:59:15.225Z,9.29
2019-04-25T02:01:44.665Z,9.27
2019-04-25T02:04:14.040Z,9.28
2019-04-25T02:06:43.472Z,9.30
2019-04-25T02:09:14.182Z,9.30
2019-04-25T02:12:05.608Z,9.28
2019-04-25T02:14:35.423Z,9.27
2019-04-25T02:17:04.740Z,9.23
2019-04-25T02:19:35.724Z,9.20
2019-04-25T02:22:04.989Z,9.20
2019-04-25T02:24:34.223Z,9.20
2019-04-25T02:27:04.639Z,9.18
2019-04-25T02:29:34.047Z,9.16
2019-04-25T02:32:08.754Z,9.15
2019-04-25T02:34:34.944Z,9.14
2019-04-25T02:37:09.179Z,9.12
2019-04-25T02:39:37.457Z,9.09
2019-04-25T02:42:08.480Z,9.07
2019-04-25T02:44:40.371Z,8.89
2019-04-25T02:47:29.541Z,8.98
2019-04-25T02:50:09.219Z,8.97
2019-04-25T02:52:47.164Z,8.93
2019-04-25T02:55:31.131Z,8.91
2019-04-25T02:57:47.369Z,8.90
2019-04-25T03:00:27.692Z,8.90
2019-04-25T03:02:59.029Z,8.89
2019-04-25T03:05:28.611Z,8.89
2019-04-25T03:07:59.845Z,8.90
2019-04-25T03:10:30.966Z,8.90
2019-04-25T03:13:02.028Z,8.90
2019-04-25T03:15:34.204Z,8.89
2019-04-25T03:18:05.773Z,8.88
2019-04-25T03:20:47.489Z,8.88
2019-04-25T03:23:36.508Z,8.88
2019-04-25T03:26:07.552Z,8.86
2019-04-25T03:28:37.003Z,8.86
2019-04-25T03:31:13.394Z,8.86
2019-04-25T03:33:38.798Z,8.85
2019-04-25T03:36:09.324Z,8.87
2019-04-25T03:38:38.887Z,8.89
2019-04-25T03:41:08.657Z,8.90
2019-04-25T03:43:40.410Z,8.93
2019-04-25T03:46:10.324Z,8.94
2019-04-25T03:48:40.026Z,8.94
2019-04-25T03:51:10.005Z,8.94
2019-04-25T03:53:39.226Z,8.98
2019-04-25T03:56:08.709Z,8.99
2019-04-25T03:58:38.216Z,9.01
2019-04-25T04:01:09.636Z,9.01
2019-04-25T04:03:38.972Z,9.04
2019-04-25T04:06:08.682Z,9.07
2019-04-25T04:08:38.874Z,9.10
2019-04-25T04:11:08.681Z,9.11
2019-04-25T04:13:38.001Z,9.15
2019-04-25T04:16:07.255Z,9.20
2019-04-25T04:18:44.404Z,9.21
2019-04-25T04:21:38.768Z,9.23
2019-04-25T04:24:16.058Z,9.27
2019-04-25T04:27:06.700Z,9.32
2019-04-25T04:29:35.293Z,9.34
2019-04-25T04:32:04.738Z,9.38
2019-04-25T04:34:34.679Z,9.40
2019-04-25T04:37:04.103Z,9.44
2019-04-25T04:39:33.887Z,9.46
2019-04-25T04:42:03.795Z,9.50
2019-04-25T04:44:34.346Z,9.55
2019-04-25T04:47:04.117Z,9.58
2019-04-25T04:49:34.398Z,9.64
2019-04-25T04:52:04.486Z,9.68
2019-04-25T04:54:34.975Z,9.73
2019-04-25T04:57:16.893Z,9.81
2019-04-25T04:59:35.253Z,9.88
2019-04-25T05:02:18.785Z,9.94
2019-04-25T05:05:07.206Z,10.02
2019-04-25T05:07:45.971Z,10.09
2019-04-25T05:10:17.716Z,10.14
2019-04-25T05:12:46.280Z,10.19
2019-04-25T05:15:16.870Z,10.27
2019-04-25T05:17:46.643Z,10.32
2019-04-25T05:20:17.512Z,10.39
2019-04-25T05:22:46.925Z,10.51
2019-04-25T05:25:17.682Z,10.58
2019-04-25T05:27:59.593Z,10.66
2019-04-25T05:30:26.460Z,10.75
2019-04-25T05:32:54.885Z,10.81
2019-04-25T05:35:25.280Z,10.88
2019-04-25T05:37:54.795Z,10.93
2019-04-25T05:40:24.503Z,11.00
2019-04-25T05:43:15.001Z,11.07
2019-04-25T05:45:44.493Z,11.14
2019-04-25T05:48:15.208Z,11.21
2019-04-25T05:50:45.043Z,11.28
2019-04-25T05:53:16.176Z,11.38
2019-04-25T05:55:45.697Z,11.49
2019-04-25T05:58:15.057Z,11.59
2019-04-25T06:00:44.630Z,11.66
2019-04-25T06:03:13.885Z,11.75
2019-04-25T06:05:43.455Z,11.81
2019-04-25T06:08:14.188Z,11.90
2019-04-25T06:11:04.038Z,11.97
2019-04-25T06:13:46.967Z,12.06
2019-04-25T06:16:21.016Z,12.15
2019-04-25T06:19:16.377Z,12.25
2019-04-25T06:21:43.571Z,12.35
2019-04-25T06:24:32.769Z,12.48
2019-04-25T06:27:25.616Z,12.62
2019-04-25T06:30:04.579Z,12.74
2019-04-25T06:32:35.340Z,12.83
2019-04-25T06:35:05.557Z,12.93
2019-04-25T06:37:35.131Z,13.08
2019-04-25T06:40:06.056Z,13.24
2019-04-25T06:42:36.343Z,13.39
2019-04-25T06:45:25.303Z,13.54
2019-04-25T06:48:04.965Z,13.66
2019-04-25T06:50:35.416Z,13.79
2019-04-25T06:53:05.248Z,13.93
2019-04-25T06:55:34.905Z,14.05
2019-04-25T06:58:11.644Z,14.20
2019-04-25T07:00:41.138Z,14.35
2019-04-25T07:03:06.424Z,14.53
2019-04-25T07:05:40.284Z,14.76
2019-04-25T07:08:06.757Z,15.09
2019-04-25T07:10:36.065Z,15.59
2019-04-25T07:13:05.334Z,16.08
2019-04-25T07:15:35.309Z,16.56
2019-04-25T07:18:04.560Z,16.98
2019-04-25T07:20:34.539Z,17.33
2019-04-25T07:23:04.973Z,17.72
2019-04-25T07:25:37.031Z,18.04
2019-04-25T07:28:32.468Z,18.34
2019-04-25T07:31:23.260Z,18.60
2019-04-25T07:33:59.508Z,18.73
2019-04-25T07:36:28.886Z,18.82
2019-04-25T07:39:08.210Z,18.81
2019-04-25T07:41:29.354Z,18.85
2019-04-25T07:43:58.600Z,18.81
2019-04-25T07:46:27.872Z,18.81
2019-04-25T07:48:57.161Z,19.01
2019-04-25T07:51:26.853Z,19.19
2019-04-25T07:53:56.045Z,19.34
2019-04-25T07:56:25.447Z,19.67
2019-04-25T07:58:54.886Z,19.97
2019-04-25T08:01:24.147Z,20.13
2019-04-25T08:03:53.890Z,20.24
2019-04-25T08:06:24.209Z,20.12
2019-04-25T08:08:54.591Z,20.13
2019-04-25T08:11:24.145Z,20.35
2019-04-25T08:14:16.339Z,20.71
2019-04-25T08:16:48.785Z,21.05
2019-04-25T08:19:18.335Z,21.30
2019-04-25T08:21:48.580Z,20.93
2019-04-25T08:24:18.275Z,21.42
2019-04-25T08:26:47.538Z,21.63
2019-04-25T08:29:16.780Z,21.78
2019-04-25T08:31:46.088Z,22.05
2019-04-25T08:34:15.340Z,21.80
2019-04-25T08:36:45.778Z,21.56
2019-04-25T08:39:15.367Z,21.61
2019-04-25T08:41:45.707Z,21.79
2019-04-25T08:44:15.164Z,21.67
2019-04-25T08:46:48.425Z,21.68
2019-04-25T08:49:21.194Z,22.09
2019-04-25T08:51:51.478Z,22.47
2019-04-25T08:54:47.568Z,22.85
2019-04-25T08:57:36.048Z,22.93
2019-04-25T09:00:14.332Z,23.19
2019-04-25T09:02:50.234Z,23.12
2019-04-25T09:05:24.166Z,23.20
2019-04-25T09:07:54.370Z,23.28
2019-04-25T09:10:23.930Z,23.28
2019-04-25T09:12:53.738Z,23.40
2019-04-25T09:15:24.140Z,23.72
2019-04-25T09:17:54.667Z,24.04
2019-04-25T09:20:24.274Z,24.46
2019-04-25T09:22:54.248Z,25.05
2019-04-25T09:25:24.032Z,24.99
2019-04-25T09:27:54.426Z,24.90
2019-04-25T09:30:24.144Z,24.70
2019-04-25T09:32:53.668Z,24.73
2019-04-25T09:35:23.643Z,24.57
2019-04-25T09:37:53.684Z,24.32
2019-04-25T09:40:24.093Z,24.20
2019-04-25T09:42:53.844Z,24.17
2019-04-25T09:45:55.025Z,24.12
2019-04-25T09:48:29.845Z,24.18
2019-04-25T09:51:13.591Z,24.17
2019-04-25T09:53:50.035Z,24.16
2019-04-25T09:56:25.498Z,23.95
2019-04-25T09:59:27.276Z,23.81
2019-04-25T10:01:51.476Z,23.83
2019-04-25T10:04:22.975Z,23.93
2019-04-25T10:06:53.479Z,23.89
2019-04-25T10:09:23.785Z,23.99
2019-04-25T10:11:54.729Z,24.16
2019-04-25T10:14:58.580Z,24.16
2019-04-25T10:17:29.337Z,24.17
2019-04-25T10:19:58.634Z,24.34
2019-04-25T10:22:29.378Z,24.08
2019-04-25T10:25:00.671Z,23.88
2019-04-25T10:27:29.866Z,23.83
2019-04-25T10:30:14.529Z,23.74
2019-04-25T10:32:33.526Z,23.97
2019-04-25T10:35:02.945Z,24.10
2019-04-25T10:37:33.659Z,24.17
2019-04-25T10:40:05.282Z,24.10
2019-04-25T10:42:34.733Z,23.77
2019-04-25T10:45:04.400Z,23.62
2019-04-25T10:47:35.180Z,24.06
2019-04-25T10:50:05.046Z,24.43
2019-04-25T10:52:34.287Z,24.61
2019-04-25T10:55:04.243Z,24.25
2019-04-25T10:57:34.062Z,24.38
2019-04-25T11:00:09.076Z,24.79
2019-04-25T11:02:36.089Z,24.99
2019-04-25T11:05:11.417Z,25.16
2019-04-25T11:07:40.715Z,24.98
2019-04-25T11:10:10.009Z,24.16
2019-04-25T11:12:40.041Z,23.32
2019-04-25T11:15:09.782Z,22.60
2019-04-25T11:17:39.088Z,22.20
2019-04-25T11:20:14.184Z,22.05
2019-04-25T11:22:44.767Z,21.73
2019-04-25T11:25:15.009Z,21.24
2019-04-25T11:27:47.359Z,21.24
2019-04-25T11:30:16.696Z,20.78
2019-04-25T11:32:45.948Z,20.39
2019-04-25T11:35:15.411Z,19.99
2019-04-25T11:37:44.871Z,19.50
2019-04-25T11:40:32.005Z,19.34
2019-04-25T11:43:01.541Z,19.26
2019-04-25T11:45:30.899Z,19.07
2019-04-25T11:48:00.190Z,18.77
2019-04-25T11:50:29.739Z,18.52
2019-04-25T11:52:59.075Z,18.29
2019-04-25T11:55:28.547Z,17.91
2019-04-25T11:57:58.379Z,17.75
2019-04-25T12:00:29.761Z,17.64
2019-04-25T12:02:59.097Z,17.44
2019-04-25T12:05:30.169Z,17.15
2019-04-25T12:07:59.440Z,16.96
2019-04-25T12:10:30.479Z,16.98
2019-04-25T12:12:59.786Z,17.04
2019-04-25T12:15:29.371Z,17.04
2019-04-25T12:17:58.723Z,16.93
2019-04-25T12:20:27.979Z,16.91
2019-04-25T12:23:05.931Z,16.92
2019-04-25T12:25:28.585Z,16.98
2019-04-25T12:27:57.826Z,16.99
2019-04-25T12:30:37.455Z,17.01
2019-04-25T12:32:58.149Z,17.00
2019-04-25T12:35:27.430Z,17.04
2019-04-25T12:37:56.680Z,16.94
2019-04-25T12:40:25.987Z,16.79
2019-04-25T12:42:55.246Z,16.67
2019-04-25T12:45:34.358Z,16.52
2019-04-25T12:48:04.142Z,16.51
2019-04-25T12:50:33.710Z,16.49
2019-04-25T12:53:03.758Z,16.42
2019-04-25T12:55:34.196Z,16.25
2019-04-25T12:58:04.244Z,16.20
2019-04-25T13:00:34.173Z,16.17
2019-04-25T13:03:06.914Z,16.08
2019-04-25T13:05:35.375Z,16.07
2019-04-25T13:08:04.961Z,15.94
2019-04-25T13:10:34.497Z,15.84
2019-04-25T13:13:04.063Z,15.83
2019-04-25T13:15:34.192Z,15.83
2019-04-25T13:18:03.623Z,15.73
2019-04-25T13:20:32.860Z,15.73
2019-04-25T13:23:03.538Z,15.75
2019-04-25T13:25:34.310Z,15.70
2019-04-25T13:28:25.435Z,15.70
2019-04-25T13:31:14.812Z,15.67
2019-04-25T13:33:58.867Z,15.62
2019-04-25T13:36:28.402Z,15.72
2019-04-25T13:38:57.658Z,15.85
2019-04-25T13:41:27.036Z,15.98
2019-04-25T13:43:56.655Z,16.27
2019-04-25T13:46:27.682Z,16.47
2019-04-25T13:48:57.037Z,16.52
2019-04-25T13:51:26.477Z,16.58
2019-04-25T13:53:55.809Z,16.66
2019-04-25T13:56:26.540Z,16.83
2019-04-25T13:58:56.456Z,17.05
2019-04-25T14:01:25.966Z,17.17
2019-04-25T14:03:55.788Z,17.12
2019-04-25T14:06:26.151Z,17.05
2019-04-25T14:08:55.594Z,17.07
2019-04-25T14:11:25.916Z,17.01
2019-04-25T14:13:55.534Z,16.98
2019-04-25T14:16:49.549Z,16.93
2019-04-25T14:19:37.731Z,16.87
2019-04-25T14:22:07.325Z,17.06
2019-04-25T14:24:36.579Z,17.22
2019-04-25T14:27:06.204Z,17.49
2019-04-25T14:29:35.558Z,17.49
2019-04-25T14:32:06.504Z,17.42
2019-04-25T14:34:35.765Z,17.42
2019-04-25T14:37:05.226Z,17.33
2019-04-25T14:39:34.497Z,17.08
2019-04-25T14:42:03.740Z,17.02
2019-04-25T14:44:33.583Z,16.75
2019-04-25T14:47:03.069Z,16.64
2019-04-25T14:49:33.249Z,16.72
2019-04-25T14:52:02.579Z,16.68
2019-04-25T14:54:37.968Z,16.71
2019-04-25T14:57:15.358Z,16.82
2019-04-25T14:59:44.615Z,16.72
2019-04-25T15:02:14.059Z,16.66
2019-04-25T15:04:43.471Z,16.62
2019-04-25T15:07:12.723Z,16.14
2019-04-25T15:09:42.054Z,16.45
2019-04-25T15:12:11.713Z,16.30
2019-04-25T15:14:40.993Z,16.17
2019-04-25T15:17:10.641Z,16.13
2019-04-25T15:19:40.009Z,16.03
2019-04-25T15:22:09.261Z,15.94
2019-04-25T15:24:38.542Z,15.95
2019-04-25T15:27:07.867Z,15.91
2019-04-25T15:29:37.111Z,15.84
2019-04-25T15:32:08.330Z,15.77
2019-04-25T15:34:50.055Z,15.78
2019-04-25T15:37:41.211Z,15.79
2019-04-25T15:40:17.389Z,15.76
2019-04-25T15:43:05.579Z,15.70
2019-04-25T15:45:49.238Z,15.56
2019-04-25T15:48:18.667Z,15.30
2019-04-25T15:50:47.967Z,15.22
2019-04-25T15:53:17.254Z,15.23
2019-04-25T15:55:46.497Z,15.23
2019-04-25T15:58:16.033Z,15.19
2019-04-25T16:00:45.493Z,15.19
2019-04-25T16:03:14.848Z,15.24
2019-04-25T16:05:44.267Z,15.16
2019-04-25T16:08:13.586Z,15.08
2019-04-25T16:10:42.943Z,15.10
2019-04-25T16:13:12.372Z,15.13
2019-04-25T16:15:41.674Z,15.17
2019-04-25T16:18:11.478Z,15.14
2019-04-25T16:20:40.735Z,15.15
2019-04-25T16:23:10.036Z,15.18
2019-04-25T16:25:39.309Z,14.86
2019-04-25T16:28:08.592Z,14.86
2019-04-25T16:30:38.637Z,14.69
2019-04-25T16:33:08.189Z,14.63
2019-04-25T16:35:37.853Z,14.54
2019-04-25T16:38:07.316Z,14.53
2019-04-25T16:40:36.556Z,14.53
2019-04-25T16:43:08.166Z,14.50
2019-04-25T16:45:39.179Z,14.58
2019-04-25T16:48:08.417Z,14.63
2019-04-25T16:50:37.659Z,14.62
2019-04-25T16:53:06.986Z,14.64
2019-04-25T16:55:36.694Z,14.69
2019-04-25T16:58:06.191Z,14.73
2019-04-25T17:00:49.333Z,14.76
2019-04-25T17:03:19.048Z,14.77
2019-04-25T17:05:48.472Z,14.76
2019-04-25T17:08:18.103Z,14.78
2019-04-25T17:10:47.384Z,14.77
2019-04-25T17:13:16.607Z,14.72
2019-04-25T17:16:12.615Z,14.68
2019-04-25T17:18:48.313Z,14.67
2019-04-25T17:21:17.678Z,14.63
2019-04-25T17:23:46.922Z,14.59
2019-04-25T17:26:16.455Z,14.54
2019-04-25T17:28:47.383Z,14.48
2019-04-25T17:31:34.577Z,14.45
2019-04-25T17:34:14.588Z,14.43
2019-04-25T17:37:01.212Z,14.38
2019-04-25T17:39:40.801Z,14.37
2019-04-25T17:42:10.059Z,14.32
2019-04-25T17:44:39.303Z,14.32
2019-04-25T17:47:08.626Z,14.30
2019-04-25T17:49:37.972Z,14.31
2019-04-25T17:52:07.247Z,14.24
2019-04-25T17:54:36.678Z,14.21
2019-04-25T17:57:05.988Z,14.16
2019-04-25T17:59:35.277Z,14.10
2019-04-25T18:02:04.889Z,14.02
2019-04-25T18:04:34.206Z,13.96
2019-04-25T18:07:04.132Z,13.89
2019-04-25T18:09:34.413Z,13.88
2019-04-25T18:12:04.707Z,13.85
2019-04-25T18:14:34.038Z,13.79
2019-04-25T18:17:04.745Z,13.72
2019-04-25T18:20:02.084Z,13.61
2019-04-25T18:22:51.490Z,13.59
2019-04-25T18:25:34.407Z,13.56
2019-04-25T18:28:17.823Z,13.53
2019-04-25T18:30:48.073Z,13.45
2019-04-25T18:33:28.464Z,13.43
2019-04-25T18:36:20.499Z,13.43
2019-04-25T18:38:59.380Z,13.41
2019-04-25T18:41:39.796Z,13.35
2019-04-25T18:44:09.407Z,13.34
2019-04-25T18:46:41.296Z,13.32
2019-04-25T18:49:10.566Z,13.27
2019-04-25T18:51:40.693Z,13.19
2019-04-25T18:54:23.266Z,13.12
2019-04-25T18:57:00.279Z,13.05
2019-04-25T18:59:41.585Z,12.98
2019-04-25T19:02:31.099Z,12.97
2019-04-25T19:05:19.289Z,12.95
2019-04-25T19:07:48.769Z,12.98
2019-04-25T19:10:18.098Z,13.00
2019-04-25T19:12:47.427Z,12.98
2019-04-25T19:15:16.892Z,12.92
2019-04-25T19:17:46.154Z,12.89
2019-04-25T19:20:15.504Z,12.91
2019-04-25T19:22:45.760Z,12.95
2019-04-25T19:25:15.511Z,12.94
2019-04-25T19:27:44.975Z,12.89
2019-04-25T19:30:16.211Z,12.89
2019-04-25T19:32:45.482Z,12.89
2019-04-25T19:35:14.842Z,12.83
2019-04-25T19:37:44.117Z,12.83
2019-04-25T19:40:23.686Z,12.85
2019-04-25T19:42:56.574Z,12.88
2019-04-25T19:45:26.055Z,12.91
2019-04-25T19:47:55.408Z,12.92
2019-04-25T19:50:24.685Z,12.93
2019-04-25T19:52:53.988Z,12.94
2019-04-25T19:55:23.275Z,12.94
2019-04-25T19:57:52.613Z,12.94
2019-04-25T20:00:22.881Z,12.94
2019-04-25T20:03:02.218Z,12.94
2019-04-25T20:05:46.203Z,12.88
2019-04-25T20:08:25.196Z,12.85
2019-04-25T20:10:58.395Z,12.81
2019-04-25T20:13:27.695Z,12.77
2019-04-25T20:15:56.971Z,12.72
2019-04-25T20:18:26.298Z,12.71
2019-04-25T20:20:55.572Z,12.71
2019-04-25T20:23:24.879Z,12.71
2019-04-25T20:25:56.269Z,12.67
2019-04-25T20:28:25.106Z,12.64
2019-04-25T20:30:54.571Z,12.57
2019-04-25T20:33:24.223Z,12.54
2019-04-25T20:35:53.542Z,12.53
2019-04-25T20:38:22.925Z,12.53
2019-04-25T20:40:52.224Z,12.51
2019-04-25T20:43:21.514Z,12.48
2019-04-25T20:45:50.824Z,12.49
2019-04-25T20:48:20.084Z,12.46
2019-04-25T20:50:50.323Z,12.41
2019-04-25T20:53:19.644Z,12.35
2019-04-25T20:55:50.777Z,12.36
2019-04-25T20:58:20.079Z,12.35
2019-04-25T21:00:52.518Z,12.28
2019-04-25T21:03:22.063Z,12.23
2019-04-25T21:05:55.103Z,12.18
2019-04-25T21:08:24.731Z,12.14
2019-04-25T21:10:53.984Z,12.04
2019-04-25T21:13:34.788Z,11.96
2019-04-25T21:16:22.127Z,11.92
2019-04-25T21:18:57.822Z,11.87
2019-04-25T21:21:27.063Z,11.83
2019-04-25T21:23:56.974Z,11.80
2019-04-25T21:26:26.446Z,11.73
2019-04-25T21:28:56.223Z,11.67
2019-04-25T21:31:25.570Z,11.62
2019-04-25T21:33:55.285Z,11.57
2019-04-25T21:36:25.094Z,11.50
2019-04-25T21:38:55.396Z,11.46
2019-04-25T21:41:42.755Z,11.42
2019-04-25T21:44:12.289Z,11.39
2019-04-25T21:46:41.545Z,11.33
2019-04-25T21:49:11.357Z,11.28
2019-04-25T21:51:40.615Z,11.23
2019-04-25T21:54:09.873Z,11.21
2019-04-25T21:56:39.463Z,11.18
2019-04-25T21:59:08.996Z,11.12
2019-04-25T22:01:41.702Z,11.08
2019-04-25T22:04:11.203Z,11.05
2019-04-25T22:06:41.000Z,11.01
2019-04-25T22:09:16.063Z,10.98
2019-04-25T22:11:45.692Z,10.92
2019-04-25T22:14:15.592Z,10.87
2019-04-25T22:16:45.254Z,10.85
2019-04-25T22:19:15.679Z,10.84
2019-04-25T22:21:45.201Z,10.83
2019-04-25T22:24:14.598Z,10.81
2019-04-25T22:26:46.660Z,10.78
2019-04-25T22:29:16.008Z,10.76
2019-04-25T22:31:52.886Z,10.73
2019-04-25T22:34:52.042Z,10.73
2019-04-25T22:37:13.423Z,10.69
2019-04-25T22:39:42.952Z,10.66
2019-04-25T22:42:12.260Z,10.63
2019-04-25T22:44:41.950Z,10.60
2019-04-25T22:47:11.190Z,10.57
2019-04-25T22:49:40.427Z,10.58
2019-04-25T22:52:11.171Z,10.55
2019-04-25T22:54:40.885Z,10.56
2019-04-25T22:57:10.137Z,10.58
2019-04-25T22:59:39.604Z,10.60
2019-04-25T23:02:27.784Z,10.61
2019-04-25T23:05:16.784Z,10.58
2019-04-25T23:07:46.082Z,10.58
2019-04-25T23:10:16.052Z,10.59
2019-04-25T23:12:45.343Z,10.54
2019-04-25T23:15:15.535Z,10.49
2019-04-25T23:17:44.771Z,10.47
2019-04-25T23:20:14.833Z,10.48
2019-04-25T23:22:44.073Z,10.47
2019-04-25T23:25:15.540Z,10.49
2019-04-25T23:28:08.537Z,10.50
2019-04-25T23:30:57.944Z,10.53
2019-04-25T23:33:27.231Z,10.51
2019-04-25T23:35:56.669Z,10.51
2019-04-25T23:38:25.900Z,10.54
2019-04-25T23:40:55.200Z,10.53
2019-04-25T23:43:24.934Z,10.54
2019-04-25T23:45:54.177Z,10.53
2019-04-25T23:48:23.621Z,10.59
2019-04-25T23:50:53.714Z,10.62
2019-04-25T23:53:23.100Z,10.65
2019-04-25T23:55:52.502Z,10.64
2019-04-25T23:58:21.780Z,10.65
